createdAt,value
2022-10-11T00:00:12.148Z,11.09
2022-10-11T00:05:34.759Z,11.11
2022-10-11T00:10:37.250Z,11.14
2022-10-11T00:15:40.354Z,11.18
2022-10-11T00:20:42.836Z,11.20
2022-10-11T00:25:45.307Z,11.20
2022-10-11T00:30:47.706Z,11.17
2022-10-11T00:35:50.485Z,11.15
2022-10-11T00:40:52.890Z,11.10
2022-10-11T00:45:55.252Z,11.03
2022-10-11T00:50:59.540Z,10.96
2022-10-11T00:56:07.248Z,10.91
2022-10-11T01:01:10.036Z,10.86
2022-10-11T01:06:12.625Z,10.79
2022-10-11T01:11:17.802Z,10.71
2022-10-11T01:16:21.144Z,10.63
2022-10-11T01:21:23.509Z,10.57
2022-10-11T01:26:34.213Z,10.54
2022-10-11T01:31:41.661Z,10.51
2022-10-11T01:36:48.540Z,10.50
2022-10-11T01:41:53.054Z,10.51
2022-10-11T01:46:55.458Z,10.52
2022-10-11T01:51:59.599Z,10.46
2022-10-11T01:57:21.943Z,10.35
2022-10-11T02:02:27.253Z,10.21
2022-10-11T02:07:40.420Z,10.06
2022-10-11T02:12:44.409Z,9.94
2022-10-11T02:17:49.176Z,9.85
2022-10-11T02:22:54.867Z,9.75
2022-10-11T02:27:59.794Z,9.60
2022-10-11T02:33:04.791Z,9.43
2022-10-11T02:38:10.137Z,9.29
2022-10-11T02:43:17.549Z,9.21
2022-10-11T02:48:20.005Z,9.14
2022-10-11T02:53:23.159Z,9.05
2022-10-11T02:58:25.597Z,8.97
2022-10-11T03:03:28.131Z,8.91
2022-10-11T03:08:30.804Z,8.90
2022-10-11T03:13:33.174Z,8.93
2022-10-11T03:18:35.551Z,9.01
2022-10-11T03:23:38.098Z,9.16
2022-10-11T03:28:40.595Z,9.31
2022-10-11T03:33:43.027Z,9.48
2022-10-11T03:38:45.442Z,9.64
2022-10-11T03:43:47.809Z,9.77
2022-10-11T03:48:50.515Z,9.87
2022-10-11T03:53:52.906Z,9.99
2022-10-11T03:58:55.698Z,10.09
2022-10-11T04:03:58.111Z,10.17
2022-10-11T04:09:00.941Z,10.25
2022-10-11T04:14:03.413Z,10.32
2022-10-11T04:19:05.910Z,10.35
2022-10-11T04:24:10.501Z,10.37
2022-10-11T04:29:12.988Z,10.35
2022-10-11T04:34:15.503Z,10.34
2022-10-11T04:39:18.205Z,10.32
2022-10-11T04:44:20.639Z,10.33
2022-10-11T04:49:23.321Z,10.34
2022-10-11T04:54:25.805Z,10.33
2022-10-11T04:59:28.193Z,10.38
2022-10-11T05:04:30.596Z,10.41
2022-10-11T05:09:33.054Z,10.45
2022-10-11T05:14:35.592Z,10.50
2022-10-11T05:19:38.111Z,10.55
2022-10-11T05:24:40.554Z,10.55
2022-10-11T05:29:42.965Z,10.55
2022-10-11T05:34:45.375Z,10.57
2022-10-11T05:39:47.789Z,10.61
2022-10-11T05:44:50.174Z,10.61
2022-10-11T05:49:52.651Z,10.66
2022-10-11T05:54:55.034Z,10.74
2022-10-11T05:59:57.724Z,10.77
2022-10-11T06:05:00.117Z,10.79
2022-10-11T06:10:03.366Z,10.85
2022-10-11T06:15:06.399Z,10.96
2022-10-11T06:20:09.092Z,11.00
2022-10-11T06:25:11.520Z,10.99
2022-10-11T06:30:14.616Z,10.97
2022-10-11T06:35:17.088Z,10.94
2022-10-11T06:40:19.469Z,11.14
2022-10-11T06:45:21.904Z,11.49
2022-10-11T06:50:41.002Z,11.69
2022-10-11T06:55:47.182Z,11.63
2022-10-11T07:00:49.634Z,11.70
2022-10-11T07:05:52.035Z,11.84
2022-10-11T07:10:59.573Z,11.97
2022-10-11T07:16:04.453Z,12.18
2022-10-11T07:21:08.719Z,12.50
2022-10-11T07:26:12.104Z,12.94
2022-10-11T07:31:16.289Z,13.42
2022-10-11T07:36:18.761Z,13.67
2022-10-11T07:41:21.371Z,13.80
2022-10-11T07:46:23.779Z,13.70
2022-10-11T07:51:26.400Z,13.49
2022-10-11T07:56:28.853Z,13.45
2022-10-11T08:01:31.538Z,13.48
2022-10-11T08:06:34.607Z,13.70
2022-10-11T08:11:37.799Z,14.05
2022-10-11T08:16:40.910Z,14.32
2022-10-11T08:21:43.549Z,14.54
2022-10-11T08:26:46.514Z,14.63
2022-10-11T08:31:49.097Z,14.67
2022-10-11T08:36:51.536Z,14.89
2022-10-11T08:41:55.517Z,14.89
2022-10-11T08:47:01.771Z,14.83
2022-10-11T08:52:07.596Z,14.97
2022-10-11T08:57:14.007Z,15.09
2022-10-11T09:02:24.224Z,15.35
2022-10-11T09:07:29.567Z,15.63
2022-10-11T09:12:37.155Z,15.77
2022-10-11T09:17:45.945Z,15.88
2022-10-11T09:22:51.572Z,16.10
2022-10-11T09:28:02.735Z,16.33
2022-10-11T09:33:08.062Z,16.62
2022-10-11T09:38:18.261Z,16.61
2022-10-11T09:43:20.733Z,16.54
2022-10-11T09:48:24.755Z,16.34
2022-10-11T09:53:30.093Z,16.39
2022-10-11T09:58:33.582Z,16.69
2022-10-11T10:03:38.762Z,16.92
2022-10-11T10:08:42.989Z,16.93
2022-10-11T10:13:46.054Z,16.58
2022-10-11T10:18:51.426Z,16.31
2022-10-11T10:23:55.600Z,16.16
2022-10-11T10:29:00.533Z,15.95
2022-10-11T10:34:05.019Z,15.90
2022-10-11T10:39:12.777Z,16.09
2022-10-11T10:44:15.737Z,16.17
2022-10-11T10:49:48.798Z,16.00
2022-10-11T10:54:46.331Z,15.83
2022-10-11T10:59:54.837Z,15.87
2022-10-11T11:05:07.505Z,15.73
2022-10-11T11:10:16.542Z,15.44
2022-10-11T11:15:27.177Z,15.33
2022-10-11T11:20:36.903Z,15.39
2022-10-11T11:25:44.834Z,15.96
2022-10-11T11:30:57.467Z,16.48
2022-10-11T11:36:03.250Z,16.91
2022-10-11T11:41:11.427Z,16.98
2022-10-11T11:46:17.368Z,16.90
2022-10-11T11:51:24.611Z,16.86
2022-10-11T11:56:39.213Z,16.87
2022-10-11T12:01:46.849Z,16.98
2022-10-11T12:07:14.646Z,17.07
2022-10-11T12:12:17.436Z,17.16
2022-10-11T12:17:21.941Z,17.31
2022-10-11T12:22:26.464Z,16.90
2022-10-11T12:27:31.779Z,16.38
2022-10-11T12:32:34.334Z,16.34
2022-10-11T12:37:36.729Z,16.39
2022-10-11T12:42:39.110Z,16.31
2022-10-11T12:47:44.414Z,16.20
2022-10-11T12:52:49.729Z,16.31
2022-10-11T12:57:55.167Z,16.50
2022-10-11T13:02:59.075Z,16.56
2022-10-11T13:08:03.973Z,16.41
2022-10-11T13:13:09.951Z,16.13
2022-10-11T13:18:14.308Z,15.97
2022-10-11T13:23:19.621Z,15.65
2022-10-11T13:28:22.951Z,15.28
2022-10-11T13:33:31.997Z,15.14
2022-10-11T13:38:35.736Z,15.19
2022-10-11T13:43:38.723Z,15.11
2022-10-11T13:48:41.282Z,15.06
2022-10-11T13:53:46.772Z,15.02
2022-10-11T13:58:49.262Z,14.99
2022-10-11T14:03:52.634Z,15.12
2022-10-11T14:08:55.910Z,15.72
2022-10-11T14:13:58.617Z,15.82
2022-10-11T14:19:01.225Z,15.49
2022-10-11T14:24:05.362Z,15.53
2022-10-11T14:29:28.245Z,15.85
2022-10-11T14:34:31.029Z,16.64
2022-10-11T14:39:33.498Z,16.88
2022-10-11T14:44:36.040Z,16.36
2022-10-11T14:49:38.474Z,15.77
2022-10-11T14:54:41.019Z,15.24
2022-10-11T14:59:43.461Z,14.91
2022-10-11T15:04:45.856Z,14.59
2022-10-11T15:09:48.243Z,14.27
2022-10-11T15:14:50.652Z,14.00
2022-10-11T15:19:53.081Z,13.75
2022-10-11T15:24:55.470Z,13.52
2022-10-11T15:29:57.857Z,13.32
2022-10-11T15:35:00.627Z,13.17
2022-10-11T15:40:03.871Z,13.03
2022-10-11T15:45:06.518Z,12.90
2022-10-11T15:50:13.645Z,12.77
2022-10-11T15:55:16.617Z,12.66
2022-10-11T16:00:22.255Z,12.57
2022-10-11T16:05:26.573Z,12.48
2022-10-11T16:10:28.999Z,12.41
2022-10-11T16:15:31.714Z,12.34
2022-10-11T16:20:34.644Z,12.26
2022-10-11T16:25:37.511Z,12.16
2022-10-11T16:30:42.958Z,12.04
2022-10-11T16:35:45.377Z,11.90
2022-10-11T16:40:47.771Z,11.72
2022-10-11T16:45:56.418Z,11.51
2022-10-11T16:51:05.014Z,11.31
2022-10-11T16:56:08.796Z,11.10
2022-10-11T17:01:11.957Z,10.89
2022-10-11T17:06:14.364Z,10.65
2022-10-11T17:11:17.798Z,10.38
2022-10-11T17:16:20.410Z,10.10
2022-10-11T17:21:23.548Z,9.81
2022-10-11T17:26:26.858Z,9.56
2022-10-11T17:31:29.648Z,9.31
2022-10-11T17:36:34.575Z,9.08
2022-10-11T17:41:37.077Z,8.88
2022-10-11T17:46:39.990Z,8.71
2022-10-11T17:51:42.748Z,8.57
2022-10-11T17:56:45.145Z,8.50
2022-10-11T18:01:48.289Z,8.47
2022-10-11T18:06:50.837Z,8.47
2022-10-11T18:11:53.230Z,8.42
2022-10-11T18:16:55.659Z,8.34
2022-10-11T18:21:58.915Z,8.26
2022-10-11T18:27:03.441Z,8.19
2022-10-11T18:32:05.815Z,8.18
2022-10-11T18:37:08.353Z,8.16
2022-10-11T18:42:10.751Z,8.12
2022-10-11T18:47:13.277Z,8.05
2022-10-11T18:52:15.688Z,8.01
2022-10-11T18:57:18.102Z,7.99
2022-10-11T19:02:20.486Z,8.01
2022-10-11T19:07:23.325Z,8.03
2022-10-11T19:12:25.703Z,8.10
2022-10-11T19:17:28.090Z,8.11
2022-10-11T19:22:31.044Z,8.11
2022-10-11T19:27:33.556Z,8.08
2022-10-11T19:32:36.311Z,8.06
2022-10-11T19:37:38.720Z,8.07
2022-10-11T19:42:41.123Z,8.08
2022-10-11T19:47:43.563Z,8.05
2022-10-11T19:52:45.940Z,7.98
2022-10-11T19:57:48.330Z,7.92
2022-10-11T20:02:50.692Z,7.86
2022-10-11T20:07:53.123Z,7.77
2022-10-11T20:12:55.546Z,7.65
2022-10-11T20:17:57.987Z,7.55
2022-10-11T20:23:00.924Z,7.46
2022-10-11T20:28:03.375Z,7.38
2022-10-11T20:33:05.787Z,7.29
2022-10-11T20:38:08.337Z,7.19
2022-10-11T20:43:10.708Z,7.13
2022-10-11T20:48:13.143Z,7.11
2022-10-11T20:53:16.435Z,7.08
2022-10-11T20:58:19.297Z,7.04
2022-10-11T21:03:21.690Z,7.01
2022-10-11T21:08:24.130Z,7.00
2022-10-11T21:13:27.004Z,7.02
2022-10-11T21:18:29.381Z,7.06
2022-10-11T21:23:32.783Z,7.11
2022-10-11T21:28:35.623Z,7.20
2022-10-11T21:33:38.958Z,7.32
2022-10-11T21:38:41.604Z,7.47
2022-10-11T21:43:44.267Z,7.61
2022-10-11T21:48:47.290Z,7.72
2022-10-11T21:53:49.770Z,7.78
2022-10-11T21:58:52.197Z,7.82
2022-10-11T22:03:54.643Z,7.83
2022-10-11T22:08:57.231Z,7.82
2022-10-11T22:14:00.125Z,7.78
2022-10-11T22:19:02.820Z,7.76
2022-10-11T22:24:05.413Z,7.77
2022-10-11T22:29:07.922Z,7.80
2022-10-11T22:34:10.289Z,7.82
2022-10-11T22:39:12.883Z,7.85
2022-10-11T22:44:15.387Z,7.90
2022-10-11T22:49:17.919Z,8.00
2022-10-11T22:54:20.328Z,8.08
2022-10-11T22:59:22.738Z,8.14
2022-10-11T23:04:25.135Z,8.18
2022-10-11T23:09:28.816Z,8.22
2022-10-11T23:14:31.196Z,8.30
2022-10-11T23:19:33.578Z,8.36
2022-10-11T23:24:36.015Z,8.36
2022-10-11T23:29:40.927Z,8.30
2022-10-11T23:34:43.410Z,8.20
2022-10-11T23:39:45.822Z,8.10
2022-10-11T23:44:48.256Z,8.04
2022-10-11T23:49:51.676Z,8.03
2022-10-11T23:54:54.021Z,8.02
2022-10-11T23:59:56.397Z,8.03
